Time;durP1;ratioP1;P1;durP2;ratioP2;P2;SDS_P1;SDS_P2;PMS_P1;PMS_P2;Temp;Humidity;BMP_temperature;BMP_pressure;BME280_temperature;BME280_humidity;BME280_pressure;Samples;Min_cycle;Max_cycle;Signal;HPM_P1;HPM_P2
2023/09/25 00:01:34;;;;;;;3.92;2.10;;;13.90;99.90;;;;;;4955176;29;20193;-67
2023/09/25 00:04:00;;;;;;;7.20;2.40;;;14.00;99.90;;;;;;4938487;29;20278;-67
2023/09/25 00:06:27;;;;;;;6.10;2.38;;;14.00;99.90;;;;;;4954189;29;20191;-66
2023/09/25 00:08:53;;;;;;;3.63;2.40;;;14.10;99.90;;;;;;4955642;29;20194;-67
2023/09/25 00:11:19;;;;;;;4.32;2.30;;;14.20;99.90;;;;;;4954953;29;20209;-65
2023/09/25 00:13:45;;;;;;;6.18;2.40;;;14.20;99.90;;;;;;4954030;28;20607;-67
2023/09/25 00:16:16;;;;;;;4.30;2.33;;;14.20;99.90;;;;;;4954692;29;20300;-68
2023/09/25 00:18:42;;;;;;;4.35;2.17;;;14.30;99.90;;;;;;4955010;29;20218;-65
2023/09/25 00:21:08;;;;;;;9.52;2.25;;;14.30;99.90;;;;;;4963406;28;20202;-66
2023/09/25 00:23:34;;;;;;;3.45;2.17;;;14.40;99.90;;;;;;4935718;29;20187;-67
2023/09/25 00:26:04;;;;;;;5.15;2.33;;;14.40;99.90;;;;;;4955219;29;20717;-66
2023/09/25 00:28:31;;;;;;;6.10;2.22;;;14.40;99.90;;;;;;4955193;29;20191;-65
2023/09/25 00:30:56;;;;;;;4.03;2.33;;;14.50;99.90;;;;;;4937830;29;20198;-66
2023/09/25 00:33:22;;;;;;;3.58;2.28;;;14.50;99.90;;;;;;4921515;29;20602;-67
2023/09/25 00:35:48;;;;;;;4.82;2.30;;;14.50;99.90;;;;;;4955203;29;20278;-67
2023/09/25 00:38:14;;;;;;;4.35;2.53;;;14.50;99.90;;;;;;4937944;29;20294;-65
2023/09/25 00:40:41;;;;;;;6.05;2.63;;;14.50;99.90;;;;;;4936975;29;20573;-66
2023/09/25 00:43:11;;;;;;;4.05;2.40;;;14.50;99.90;;;;;;4937939;29;20187;-67
2023/09/25 00:45:37;;;;;;;5.30;2.78;;;14.60;99.90;;;;;;4937327;29;20191;-65
2023/09/25 00:48:04;;;;;;;5.43;2.63;;;14.50;99.90;;;;;;4955224;29;20561;-66
2023/09/25 00:50:32;;;;;;;5.32;2.60;;;14.50;99.90;;;;;;4937166;29;20186;-66
2023/09/25 00:53:06;;;;;;;5.20;2.83;;;14.50;99.90;;;;;;4954799;29;20202;-66
2023/09/25 00:55:34;;;;;;;5.03;2.72;;;14.50;99.90;;;;;;4936789;29;20179;-67
2023/09/25 00:58:01;;;;;;;3.30;2.72;;;14.50;99.90;;;;;;4954691;29;20232;-66
2023/09/25 01:00:28;;;;;;;4.43;2.50;;;14.50;99.90;;;;;;4954153;29;20250;-67
2023/09/25 01:02:53;;;;;;;5.35;3.00;;;14.50;99.90;;;;;;4937757;29;20341;-66
2023/09/25 01:05:19;;;;;;;6.90;2.78;;;14.40;99.90;;;;;;4926494;29;20556;-67
2023/09/25 01:07:45;;;;;;;5.93;2.90;;;14.40;99.90;;;;;;4963034;28;20186;-70
2023/09/25 01:10:16;;;;;;;6.15;2.92;;;14.40;99.90;;;;;;4939583;28;20670;-66
2023/09/25 01:12:45;;;;;;;6.85;2.58;;;14.40;99.90;;;;;;4954292;29;20233;-67
2023/09/25 01:15:15;;;;;;;4.47;2.85;;;14.40;99.90;;;;;;4936410;29;20231;-67
2023/09/25 01:17:42;;;;;;;5.88;2.90;;;14.30;99.90;;;;;;4953828;29;20217;-67
2023/09/25 01:20:12;;;;;;;8.68;3.55;;;14.30;99.90;;;;;;4953225;29;20190;-67
2023/09/25 01:22:40;;;;;;;6.55;2.90;;;14.30;99.90;;;;;;4933432;29;20179;-66
2023/09/25 01:25:06;;;;;;;7.20;3.10;;;14.30;99.90;;;;;;4921877;29;20194;-66
2023/09/25 01:27:32;;;;;;;3.60;2.80;;;14.30;99.90;;;;;;4954108;29;20190;-66
2023/09/25 01:29:58;;;;;;;5.70;3.20;;;14.20;99.90;;;;;;4905726;29;20194;-66
2023/09/25 01:32:24;;;;;;;5.18;3.13;;;14.20;99.90;;;;;;4936104;29;20638;-65
2023/09/25 01:34:50;;;;;;;4.47;3.08;;;14.20;99.90;;;;;;4954077;29;20182;-66
2023/09/25 01:37:16;;;;;;;7.15;2.90;;;14.20;99.90;;;;;;4936849;29;20237;-65
2023/09/25 01:39:42;;;;;;;6.00;3.42;;;14.20;99.90;;;;;;4953588;29;20674;-65
2023/09/25 01:42:08;;;;;;;4.38;3.10;;;14.20;99.90;;;;;;4952646;29;20191;-68
2023/09/25 01:44:34;;;;;;;5.50;3.08;;;14.20;99.90;;;;;;4954370;29;20205;-67
2023/09/25 01:47:00;;;;;;;6.65;3.40;;;14.20;99.90;;;;;;4953581;29;20276;-66
2023/09/25 01:49:27;;;;;;;6.43;3.00;;;14.10;99.90;;;;;;4953910;29;20186;-68
2023/09/25 01:51:54;;;;;;;6.07;3.25;;;14.10;99.90;;;;;;4935659;29;20197;-68
2023/09/25 01:54:20;;;;;;;7.10;3.30;;;14.10;99.90;;;;;;4936536;29;20186;-66
2023/09/25 01:56:45;;;;;;;7.80;3.30;;;14.10;99.90;;;;;;4936587;29;20194;-66
2023/09/25 01:59:11;;;;;;;6.00;3.17;;;14.00;99.90;;;;;;4901989;29;20226;-67
2023/09/25 02:01:39;;;;;;;8.07;3.03;;;14.00;99.90;;;;;;4948750;29;20218;-66
2023/09/25 02:04:07;;;;;;;5.45;3.30;;;14.00;99.90;;;;;;4951080;29;20190;-67
2023/09/25 02:06:33;;;;;;;6.60;3.15;;;14.00;99.90;;;;;;4953209;29;20179;-65
2023/09/25 02:09:01;;;;;;;5.32;3.40;;;13.90;99.90;;;;;;4953658;29;20215;-66
2023/09/25 02:11:26;;;;;;;7.93;3.22;;;13.90;99.90;;;;;;4952823;29;20184;-68
2023/09/25 02:13:52;;;;;;;4.88;3.17;;;13.90;99.90;;;;;;4931200;29;20262;-67
2023/09/25 02:16:18;;;;;;;6.68;3.20;;;13.90;99.90;;;;;;4934095;29;20187;-67
2023/09/25 02:18:44;;;;;;;4.53;3.30;;;13.80;99.90;;;;;;4948910;28;20362;-66
2023/09/25 02:21:10;;;;;;;8.93;3.60;;;13.80;99.90;;;;;;4932637;29;20501;-66
2023/09/25 02:23:36;;;;;;;4.35;3.03;;;13.80;99.90;;;;;;4933301;29;20564;-69
2023/09/25 02:26:02;;;;;;;4.93;3.38;;;13.80;99.90;;;;;;4931680;29;20187;-65
2023/09/25 02:28:28;;;;;;;4.22;2.97;;;13.80;99.90;;;;;;4933208;29;20293;-67
2023/09/25 02:30:54;;;;;;;4.63;3.33;;;13.70;99.90;;;;;;4932624;29;20195;-67
2023/09/25 02:33:19;;;;;;;5.28;3.10;;;13.70;99.90;;;;;;4933416;29;20207;-69
2023/09/25 02:35:45;;;;;;;6.20;3.15;;;13.70;99.90;;;;;;4932455;29;20188;-67
2023/09/25 02:38:11;;;;;;;6.57;3.47;;;13.70;99.90;;;;;;4965216;28;20680;-67
2023/09/25 02:40:38;;;;;;;7.18;3.60;;;13.70;99.90;;;;;;4933370;29;20222;-65
2023/09/25 02:43:04;;;;;;;6.00;3.08;;;13.70;99.90;;;;;;4949344;29;20187;-66
2023/09/25 02:45:31;;;;;;;6.22;3.42;;;13.70;99.90;;;;;;4933662;29;20627;-66
2023/09/25 02:47:57;;;;;;;10.02;3.33;;;13.70;99.90;;;;;;4932068;29;20210;-68
2023/09/25 02:50:23;;;;;;;7.75;3.20;;;13.70;99.90;;;;;;4933860;29;20660;-67
2023/09/25 02:52:49;;;;;;;4.30;3.03;;;13.70;99.90;;;;;;4933187;29;20291;-66
2023/09/25 02:55:15;;;;;;;6.43;3.17;;;13.70;99.90;;;;;;4932396;29;20187;-66
2023/09/25 02:57:41;;;;;;;7.07;3.60;;;13.70;99.90;;;;;;4931299;29;20763;-67
2023/09/25 03:00:10;;;;;;;7.47;3.40;;;13.60;99.90;;;;;;4932589;29;20274;-66
2023/09/25 03:02:36;;;;;;;9.43;3.55;;;13.60;99.90;;;;;;4932734;29;20187;-67
2023/09/25 03:05:04;;;;;;;5.50;3.55;;;13.60;99.90;;;;;;4933386;29;20198;-66
2023/09/25 03:07:30;;;;;;;6.32;4.07;;;13.60;99.90;;;;;;4931567;29;20199;-67
2023/09/25 03:09:56;;;;;;;6.65;3.40;;;13.60;99.90;;;;;;4933151;29;20270;-67
2023/09/25 03:12:22;;;;;;;5.50;3.83;;;13.60;99.90;;;;;;4933112;29;20199;-66
2023/09/25 03:14:49;;;;;;;4.40;3.40;;;13.60;99.90;;;;;;4949366;29;20244;-67
2023/09/25 03:17:15;;;;;;;6.15;3.47;;;13.50;99.90;;;;;;4953110;29;20195;-66
2023/09/25 03:19:41;;;;;;;5.32;3.67;;;13.50;99.90;;;;;;4950093;28;20191;-66
2023/09/25 03:22:07;;;;;;;4.57;3.67;;;13.50;99.90;;;;;;4945897;29;20289;-68
2023/09/25 03:24:35;;;;;;;7.90;3.60;;;13.50;99.90;;;;;;4952844;29;20269;-68
2023/09/25 03:27:00;;;;;;;5.60;3.67;;;13.50;99.90;;;;;;4935807;29;20265;-67
2023/09/25 03:29:26;;;;;;;9.57;4.10;;;13.50;99.90;;;;;;4934750;29;20559;-68
2023/09/25 03:31:52;;;;;;;7.35;4.00;;;13.40;99.90;;;;;;4969049;28;20202;-66
2023/09/25 03:34:20;;;;;;;7.65;3.70;;;13.40;99.90;;;;;;4956840;29;20183;-67
2023/09/25 03:36:48;;;;;;;8.13;3.55;;;13.40;99.90;;;;;;4939688;29;20222;-67
2023/09/25 03:39:14;;;;;;;5.45;3.83;;;13.40;99.90;;;;;;4955438;28;20653;-67
2023/09/25 03:41:40;;;;;;;9.50;3.95;;;13.30;99.90;;;;;;4956863;29;20191;-66
2023/09/25 03:44:06;;;;;;;4.80;3.63;;;13.30;99.90;;;;;;4955837;28;20536;-66
2023/09/25 03:46:32;;;;;;;7.22;3.90;;;13.30;99.90;;;;;;4939991;29;20194;-67
2023/09/25 03:49:05;;;;;;;6.25;3.88;;;13.30;99.90;;;;;;4938238;29;20493;-66
2023/09/25 03:51:34;;;;;;;4.72;3.70;;;13.30;99.90;;;;;;4939080;29;20715;-68
2023/09/25 03:54:00;;;;;;;5.82;3.65;;;13.20;99.90;;;;;;4912396;29;20680;-67
2023/09/25 03:56:29;;;;;;;6.75;3.70;;;13.30;99.90;;;;;;4938139;29;20539;-67
2023/09/25 03:58:55;;;;;;;7.13;3.45;;;13.20;99.90;;;;;;4954956;29;20225;-67
2023/09/25 04:01:21;;;;;;;4.57;3.50;;;13.20;99.90;;;;;;4954888;29;20242;-67
2023/09/25 04:03:47;;;;;;;6.95;3.88;;;13.20;99.90;;;;;;4955950;29;20190;-65
2023/09/25 04:06:13;;;;;;;4.05;3.40;;;13.20;99.90;;;;;;4936372;29;20190;-65
2023/09/25 04:08:39;;;;;;;8.00;4.00;;;13.20;99.90;;;;;;4938411;29;20197;-67
2023/09/25 04:11:05;;;;;;;5.68;3.90;;;13.20;99.90;;;;;;4957241;28;20194;-67
2023/09/25 04:13:31;;;;;;;6.50;3.95;;;13.20;99.90;;;;;;4922999;29;20262;-67
2023/09/25 04:15:57;;;;;;;7.07;3.92;;;13.20;99.90;;;;;;4969709;28;20332;-66
2023/09/25 04:18:23;;;;;;;6.15;4.10;;;13.20;99.90;;;;;;4955899;29;20777;-67
2023/09/25 04:20:49;;;;;;;8.18;4.20;;;13.20;99.90;;;;;;4955672;29;20226;-68
2023/09/25 04:23:15;;;;;;;9.35;3.88;;;13.20;99.90;;;;;;4956002;29;20203;-68
2023/09/25 04:25:41;;;;;;;6.22;3.65;;;13.20;99.90;;;;;;4955541;29;20187;-66
2023/09/25 04:28:07;;;;;;;6.13;3.65;;;13.20;99.90;;;;;;4953794;29;20183;-65
2023/09/25 04:30:33;;;;;;;4.85;3.53;;;13.20;99.90;;;;;;4955311;29;20197;-67
2023/09/25 04:33:00;;;;;;;5.75;3.65;;;13.20;99.90;;;;;;4955578;29;20195;-68
2023/09/25 04:35:26;;;;;;;7.35;3.85;;;13.20;99.90;;;;;;4954835;29;20723;-66
2023/09/25 04:37:53;;;;;;;8.50;3.92;;;13.20;99.90;;;;;;4936790;29;20305;-65
2023/09/25 04:40:30;;;;;;;6.32;3.78;;;13.20;99.90;;;;;;4953996;29;20299;-67
2023/09/25 04:42:57;;;;;;;5.57;3.75;;;13.20;99.90;;;;;;4955329;28;20190;-66
2023/09/25 04:45:23;;;;;;;6.03;3.92;;;13.20;99.90;;;;;;4954294;29;20237;-66
2023/09/25 04:47:52;;;;;;;8.60;3.63;;;13.20;99.90;;;;;;4954779;29;20197;-67
2023/09/25 04:50:20;;;;;;;7.82;4.10;;;13.20;99.90;;;;;;4955162;29;20199;-67
2023/09/25 04:52:46;;;;;;;7.25;4.35;;;13.20;99.90;;;;;;4955311;29;20178;-67
2023/09/25 04:55:13;;;;;;;8.23;3.90;;;13.20;99.90;;;;;;4920999;29;20194;-67
2023/09/25 04:57:44;;;;;;;4.88;3.85;;;13.20;99.90;;;;;;4931135;29;20238;-67
2023/09/25 05:00:25;;;;;;;6.68;4.13;;;13.20;99.90;;;;;;4936063;29;20789;-66
2023/09/25 05:02:52;;;;;;;5.28;3.85;;;13.20;99.90;;;;;;4952252;29;20183;-71
2023/09/25 05:05:18;;;;;;;9.73;5.68;;;13.20;99.90;;;;;;4954076;29;20190;-65
2023/09/25 05:07:48;;;;;;;7.47;4.18;;;13.20;99.90;;;;;;4954122;29;20190;-68
2023/09/25 05:10:16;;;;;;;6.45;4.05;;;13.20;99.90;;;;;;4952406;29;20728;-67
2023/09/25 05:12:43;;;;;;;6.32;3.80;;;13.20;99.90;;;;;;4953182;29;20270;-69
2023/09/25 05:15:13;;;;;;;6.75;4.32;;;13.20;99.90;;;;;;4954948;29;20313;-70
2023/09/25 05:17:40;;;;;;;6.57;4.10;;;13.20;99.90;;;;;;4954390;29;20218;-70
2023/09/25 05:20:11;;;;;;;7.35;4.20;;;13.20;99.90;;;;;;4949504;29;20183;-67
2023/09/25 05:22:41;;;;;;;5.88;4.10;;;13.20;99.90;;;;;;4926662;29;20178;-68
2023/09/25 05:25:09;;;;;;;7.05;3.90;;;13.20;99.90;;;;;;4934719;29;20211;-67
2023/09/25 05:27:36;;;;;;;6.78;4.18;;;13.20;99.90;;;;;;4937237;29;20273;-67
2023/09/25 05:30:05;;;;;;;6.13;4.00;;;13.20;99.90;;;;;;4951839;28;20198;-69
2023/09/25 05:32:32;;;;;;;7.65;4.07;;;13.20;99.90;;;;;;4920762;29;20285;-66
2023/09/25 05:34:59;;;;;;;10.65;4.70;;;13.20;99.90;;;;;;4953708;29;20282;-66
2023/09/25 05:37:25;;;;;;;13.35;6.82;;;13.20;99.90;;;;;;4953235;29;20187;-69
2023/09/25 05:39:51;;;;;;;6.43;4.30;;;13.30;99.90;;;;;;4936600;29;20242;-70
2023/09/25 05:42:17;;;;;;;8.55;4.10;;;13.30;99.90;;;;;;4953054;29;20636;-69
2023/09/25 05:44:42;;;;;;;7.13;4.18;;;13.20;99.90;;;;;;4953890;29;20273;-70
2023/09/25 05:47:08;;;;;;;6.95;4.95;;;13.30;99.90;;;;;;4953683;29;20194;-69
2023/09/25 05:49:34;;;;;;;10.82;4.63;;;13.20;99.90;;;;;;4953778;29;20556;-68
2023/09/25 05:52:00;;;;;;;5.60;3.65;;;13.30;99.90;;;;;;4953420;29;20253;-65
2023/09/25 05:54:26;;;;;;;6.13;3.88;;;13.30;99.90;;;;;;4952667;29;20191;-68
2023/09/25 05:56:53;;;;;;;10.07;4.80;;;13.30;99.90;;;;;;4968121;28;20246;-67
2023/09/25 05:59:19;;;;;;;6.20;3.88;;;13.30;99.90;;;;;;4953971;29;20218;-65
2023/09/25 06:01:45;;;;;;;7.63;4.20;;;13.30;99.90;;;;;;4935640;29;20290;-66
2023/09/25 06:04:12;;;;;;;10.25;4.28;;;13.40;99.90;;;;;;4951930;29;20182;-67
2023/09/25 06:06:37;;;;;;;8.32;4.20;;;13.40;99.90;;;;;;4946815;29;20186;-69
2023/09/25 06:09:08;;;;;;;8.15;4.05;;;13.40;99.90;;;;;;4968374;28;20201;-68
2023/09/25 06:11:39;;;;;;;6.65;4.00;;;13.40;99.90;;;;;;4952631;29;20278;-65
2023/09/25 06:14:05;;;;;;;6.45;3.45;;;13.50;99.90;;;;;;4952506;29;20235;-66
2023/09/25 06:16:31;;;;;;;6.07;3.80;;;13.50;99.90;;;;;;4965397;28;20186;-67
2023/09/25 06:18:57;;;;;;;11.63;6.40;;;13.60;99.90;;;;;;4961821;28;20216;-66
2023/09/25 06:21:23;;;;;;;10.32;4.10;;;13.60;99.90;;;;;;4919756;29;20198;-67
2023/09/25 06:23:49;;;;;;;8.38;3.85;;;13.70;99.90;;;;;;4953475;29;20186;-66
2023/09/25 06:26:15;;;;;;;5.65;4.05;;;13.80;99.90;;;;;;4951301;29;20248;-66
2023/09/25 06:28:42;;;;;;;9.55;4.38;;;13.80;99.90;;;;;;4950596;28;20186;-67
2023/09/25 06:31:08;;;;;;;6.85;3.85;;;13.90;99.90;;;;;;4952168;29;20195;-67
2023/09/25 06:33:34;;;;;;;7.03;4.03;;;13.90;99.90;;;;;;4919609;29;20289;-67
2023/09/25 06:36:00;;;;;;;6.28;3.80;;;14.00;99.90;;;;;;4957948;28;20253;-67
2023/09/25 06:38:26;;;;;;;14.38;7.47;;;14.00;99.90;;;;;;4947348;28;20220;-67
2023/09/25 06:40:52;;;;;;;6.18;4.10;;;14.10;99.90;;;;;;4950866;29;20190;-65
2023/09/25 06:43:18;;;;;;;7.13;3.40;;;14.10;99.90;;;;;;4950978;29;20187;-67
2023/09/25 06:45:44;;;;;;;14.20;3.80;;;14.20;99.90;;;;;;4952528;29;20706;-68
2023/09/25 06:48:10;;;;;;;6.00;3.25;;;14.20;99.90;;;;;;4935693;29;20229;-66
2023/09/25 06:50:36;;;;;;;7.88;4.15;;;14.20;99.90;;;;;;4951675;29;20677;-66
2023/09/25 06:53:03;;;;;;;6.18;3.78;;;14.30;99.90;;;;;;4950465;28;20290;-66
2023/09/25 06:55:30;;;;;;;9.50;3.90;;;14.30;99.90;;;;;;4935907;29;20190;-66
2023/09/25 06:57:56;;;;;;;5.03;3.60;;;14.30;99.90;;;;;;4952565;29;20225;-69
2023/09/25 07:00:23;;;;;;;8.63;3.70;;;14.40;99.90;;;;;;4951806;29;20198;-67
2023/09/25 07:02:50;;;;;;;7.30;4.03;;;14.40;99.90;;;;;;4918729;29;20636;-68
2023/09/25 07:05:17;;;;;;;6.10;3.53;;;14.40;99.90;;;;;;4953057;29;20191;-66
2023/09/25 07:07:42;;;;;;;6.30;4.07;;;14.40;99.90;;;;;;4937219;29;20690;-67
2023/09/25 07:10:10;;;;;;;4.97;3.53;;;14.50;99.90;;;;;;4955726;28;20194;-67
2023/09/25 07:12:37;;;;;;;4.97;3.50;;;14.40;99.90;;;;;;4949320;29;20270;-69
2023/09/25 07:15:03;;;;;;;7.60;3.88;;;14.50;99.90;;;;;;4938867;29;20661;-67
2023/09/25 07:17:31;;;;;;;5.00;3.30;;;14.50;99.90;;;;;;4949439;29;20212;-67
2023/09/25 07:19:57;;;;;;;6.00;3.83;;;14.50;99.90;;;;;;4955988;29;20695;-68
2023/09/25 07:22:28;;;;;;;6.25;3.83;;;14.60;99.90;;;;;;4953479;28;20187;-67
2023/09/25 07:24:54;;;;;;;5.40;3.53;;;14.60;99.90;;;;;;4933511;29;20613;-66
2023/09/25 07:27:20;;;;;;;8.93;3.75;;;14.60;99.90;;;;;;4956700;29;20700;-67
2023/09/25 07:29:48;;;;;;;5.07;3.45;;;14.70;99.90;;;;;;4956100;29;20190;-67
2023/09/25 07:32:15;;;;;;;7.72;3.58;;;14.70;99.90;;;;;;4956144;29;20187;-71
2023/09/25 07:34:43;;;;;;;4.93;3.47;;;14.80;99.90;;;;;;4937918;29;20647;-68
2023/09/25 07:37:12;;;;;;;6.50;4.35;;;14.90;99.90;;;;;;4918790;29;20191;-67
2023/09/25 07:39:40;;;;;;;5.50;3.25;;;14.90;99.90;;;;;;4951571;29;20682;-68
2023/09/25 07:42:07;;;;;;;5.45;3.50;;;14.90;99.90;;;;;;4937770;29;20191;-67
2023/09/25 07:44:36;;;;;;;6.78;3.58;;;15.00;99.90;;;;;;4956433;29;20592;-68
2023/09/25 07:47:06;;;;;;;6.40;3.35;;;15.10;99.90;;;;;;4956283;29;20182;-66
2023/09/25 07:49:38;;;;;;;7.90;3.50;;;15.10;99.90;;;;;;4956528;29;20214;-68
2023/09/25 07:52:15;;;;;;;8.27;3.42;;;15.20;99.90;;;;;;4956115;29;20201;-68
2023/09/25 07:54:48;;;;;;;4.75;3.40;;;15.30;99.90;;;;;;4954475;29;20261;-68
2023/09/25 07:57:16;;;;;;;5.25;3.50;;;15.40;99.90;;;;;;4943444;29;20182;-67
2023/09/25 07:59:42;;;;;;;8.30;3.25;;;15.40;99.90;;;;;;4955545;29;20273;-75
2023/09/25 08:02:08;;;;;;;6.78;3.33;;;15.50;99.90;;;;;;4952984;28;20186;-68
2023/09/25 08:04:35;;;;;;;4.03;3.13;;;15.60;99.90;;;;;;4955691;29;20222;-66
2023/09/25 08:07:03;;;;;;;7.43;3.30;;;15.60;99.90;;;;;;4924211;29;20198;-66
2023/09/25 08:09:30;;;;;;;9.90;4.00;;;15.70;99.90;;;;;;4947961;29;20229;-67
2023/09/25 08:11:56;;;;;;;6.10;3.08;;;15.80;99.90;;;;;;4935207;29;20924;-71
2023/09/25 08:14:22;;;;;;;5.82;3.35;;;15.80;99.90;;;;;;4954623;29;20245;-65
2023/09/25 08:16:49;;;;;;;6.43;3.65;;;15.90;99.90;;;;;;4938100;29;20182;-72
2023/09/25 08:19:17;;;;;;;7.82;3.75;;;15.90;99.90;;;;;;4931912;29;20222;-67
2023/09/25 08:21:44;;;;;;;7.05;3.03;;;16.00;99.90;;;;;;4962208;28;20202;-68
2023/09/25 08:24:10;;;;;;;7.78;3.10;;;16.00;99.90;;;;;;4952355;29;20209;-67
2023/09/25 08:26:36;;;;;;;6.93;3.60;;;16.10;99.90;;;;;;4950850;28;20257;-67
2023/09/25 08:29:05;;;;;;;7.60;2.97;;;16.10;99.90;;;;;;4956781;28;20190;-68
2023/09/25 08:31:31;;;;;;;16.20;7.60;;;16.20;99.90;;;;;;4956818;28;20321;-68
2023/09/25 08:33:57;;;;;;;8.07;3.45;;;16.30;99.90;;;;;;4955017;29;20190;-65
2023/09/25 08:36:23;;;;;;;10.25;3.80;;;16.40;99.90;;;;;;4936398;29;20209;-66
2023/09/25 08:38:49;;;;;;;8.20;3.88;;;16.40;99.90;;;;;;4949042;29;20679;-66
2023/09/25 08:41:19;;;;;;;5.65;3.35;;;16.50;99.90;;;;;;4950246;28;20245;-69
2023/09/25 08:43:45;;;;;;;4.72;3.10;;;16.60;99.90;;;;;;4948669;28;20206;-67
2023/09/25 08:46:11;;;;;;;7.35;3.30;;;16.60;99.90;;;;;;4953032;28;20186;-66
2023/09/25 08:48:37;;;;;;;10.30;3.60;;;16.60;99.90;;;;;;4947568;29;20197;-69
2023/09/25 08:51:05;;;;;;;6.15;3.00;;;16.70;99.90;;;;;;4941163;29;20544;-67
2023/09/25 08:53:31;;;;;;;5.47;2.90;;;16.80;99.90;;;;;;4955026;29;20218;-66
2023/09/25 08:55:57;;;;;;;5.93;2.92;;;16.90;99.90;;;;;;4954691;29;20241;-67
2023/09/25 08:58:24;;;;;;;7.22;3.33;;;17.00;99.90;;;;;;4935073;28;20679;-68
2023/09/25 09:00:50;;;;;;;6.03;3.03;;;17.00;99.90;;;;;;4957735;28;20193;-67
2023/09/25 09:03:17;;;;;;;8.95;5.93;;;17.10;99.90;;;;;;4952698;28;20271;-66
2023/09/25 09:05:43;;;;;;;7.57;2.90;;;17.20;99.90;;;;;;4955695;28;20182;-68
2023/09/25 09:08:09;;;;;;;5.60;3.10;;;17.10;99.90;;;;;;4915899;29;20193;-68
2023/09/25 09:10:38;;;;;;;5.15;2.97;;;17.20;99.90;;;;;;4952257;29;20218;-65
2023/09/25 09:13:09;;;;;;;6.00;2.85;;;17.30;99.90;;;;;;4940541;28;20619;-68
2023/09/25 09:15:37;;;;;;;5.30;3.05;;;17.30;99.90;;;;;;4948130;28;20191;-67
2023/09/25 09:18:24;;;;;;;8.27;3.40;;;17.40;99.90;;;;;;4937231;28;20251;-66
2023/09/25 09:20:50;;;;;;;9.90;3.17;;;17.40;99.90;;;;;;4948017;28;20578;-67
2023/09/25 09:23:16;;;;;;;6.65;2.70;;;17.50;99.90;;;;;;4952763;28;20183;-67
2023/09/25 09:25:48;;;;;;;5.97;3.40;;;17.50;99.90;;;;;;4950571;28;20198;-65
2023/09/25 09:28:14;;;;;;;5.72;3.05;;;17.50;99.90;;;;;;4952975;29;20242;-67
2023/09/25 09:30:41;;;;;;;7.47;3.33;;;17.60;99.90;;;;;;4953301;28;20246;-66
2023/09/25 09:33:09;;;;;;;7.22;3.30;;;17.60;99.90;;;;;;4949493;28;20595;-67
2023/09/25 09:35:35;;;;;;;6.75;3.05;;;17.60;99.90;;;;;;4950989;28;20189;-69
2023/09/25 09:38:04;;;;;;;5.25;3.20;;;17.60;99.90;;;;;;4951559;28;20214;-66
2023/09/25 09:40:30;;;;;;;6.10;3.65;;;17.70;99.90;;;;;;4947807;28;20187;-67
2023/09/25 09:42:57;;;;;;;7.57;3.03;;;17.80;99.90;;;;;;4934820;29;20194;-67
2023/09/25 09:45:23;;;;;;;6.15;3.15;;;17.80;99.90;;;;;;4932951;29;20194;-68
2023/09/25 09:47:50;;;;;;;5.72;2.90;;;17.80;99.90;;;;;;4936699;28;20190;-67
2023/09/25 09:50:27;;;;;;;8.40;2.97;;;17.90;99.90;;;;;;4949806;28;20639;-70
2023/09/25 09:52:54;;;;;;;7.72;2.85;;;17.90;99.90;;;;;;4933974;29;20199;-66
2023/09/25 09:55:22;;;;;;;4.70;2.85;;;18.00;99.90;;;;;;4935059;29;20179;-66
2023/09/25 09:57:49;;;;;;;6.30;3.05;;;18.00;99.90;;;;;;4933344;28;20214;-67
2023/09/25 10:00:16;;;;;;;11.02;3.70;;;18.00;99.90;;;;;;4951801;28;20194;-65
2023/09/25 10:02:45;;;;;;;13.20;3.72;;;18.10;99.90;;;;;;4951786;29;20191;-70
2023/09/25 10:05:12;;;;;;;6.13;2.67;;;18.10;99.90;;;;;;4934333;29;20699;-67
2023/09/25 10:08:11;;;;;;;5.50;3.03;;;18.10;99.90;;;;;;4952995;28;20281;-66
2023/09/25 10:11:13;;;;;;;4.68;2.92;;;18.20;99.90;;;;;;4949812;28;20314;-67
2023/09/25 10:13:39;;;;;;;13.10;3.45;;;18.30;99.90;;;;;;4942045;28;20667;-67
2023/09/25 10:16:05;;;;;;;5.93;2.90;;;18.40;99.90;;;;;;4943452;29;20195;-67
2023/09/25 10:18:31;;;;;;;6.55;2.90;;;18.40;99.90;;;;;;4948504;29;20207;-66
2023/09/25 10:21:08;;;;;;;7.38;3.75;;;18.40;99.90;;;;;;4950128;28;20249;-70
2023/09/25 10:23:34;;;;;;;6.57;2.88;;;18.50;99.90;;;;;;4949877;28;20588;-67
2023/09/25 10:26:02;;;;;;;6.70;3.75;;;18.60;99.90;;;;;;4952939;29;20187;-66
2023/09/25 10:28:32;;;;;;;5.25;2.72;;;18.60;99.90;;;;;;4915786;28;20190;-67
2023/09/25 10:31:00;;;;;;;6.30;2.90;;;18.70;99.90;;;;;;4951282;28;20183;-66
2023/09/25 10:33:36;;;;;;;6.47;3.30;;;18.80;99.90;;;;;;4948204;28;20198;-67
2023/09/25 10:36:05;;;;;;;10.70;3.88;;;18.80;99.90;;;;;;4934142;29;20249;-67
2023/09/25 10:38:36;;;;;;;7.75;2.55;;;18.80;99.90;;;;;;4950410;28;20284;-66
2023/09/25 10:41:06;;;;;;;5.88;2.67;;;18.90;99.90;;;;;;4948638;28;20233;-67
2023/09/25 10:43:33;;;;;;;8.13;2.70;;;19.00;99.90;;;;;;4953383;28;20219;-67
2023/09/25 10:45:59;;;;;;;7.68;3.10;;;19.10;99.90;;;;;;4938841;29;20179;-67
2023/09/25 10:48:27;;;;;;;4.65;2.42;;;19.20;99.90;;;;;;4938978;29;20189;-71
2023/09/25 10:50:54;;;;;;;5.18;2.60;;;19.20;99.90;;;;;;4954469;28;20221;-67
2023/09/25 10:53:21;;;;;;;6.28;2.75;;;19.30;99.90;;;;;;4934587;29;20281;-67
2023/09/25 10:55:48;;;;;;;6.72;2.65;;;19.30;99.90;;;;;;4953125;29;20193;-68
2023/09/25 10:58:14;;;;;;;4.82;2.83;;;19.40;99.90;;;;;;4956554;29;20701;-68
2023/09/25 11:00:42;;;;;;;7.53;2.63;;;19.40;99.90;;;;;;4939943;29;20639;-67
2023/09/25 11:03:09;;;;;;;8.27;2.70;;;19.50;99.90;;;;;;4956617;29;20222;-66
2023/09/25 11:05:38;;;;;;;19.48;3.28;;;19.50;99.90;;;;;;4953075;29;20187;-67
2023/09/25 11:08:06;;;;;;;7.85;3.20;;;19.50;99.90;;;;;;4937809;29;20270;-68
2023/09/25 11:10:36;;;;;;;9.25;2.65;;;19.60;99.90;;;;;;4955945;29;20201;-66
2023/09/25 11:13:03;;;;;;;7.60;2.88;;;19.60;99.90;;;;;;4956286;28;20541;-66
2023/09/25 11:15:36;;;;;;;5.35;2.40;;;19.60;99.90;;;;;;4936360;29;20226;-67
2023/09/25 11:18:04;;;;;;;4.63;2.70;;;19.60;99.90;;;;;;4946312;29;20201;-66
2023/09/25 11:20:32;;;;;;;6.30;2.72;;;19.70;99.90;;;;;;4947704;29;20187;-66
2023/09/25 11:23:09;;;;;;;6.40;2.70;;;19.80;99.90;;;;;;4956153;29;20214;-66
2023/09/25 11:25:47;;;;;;;3.50;2.45;;;19.80;99.90;;;;;;4955549;29;20265;-67
2023/09/25 11:28:25;;;;;;;6.82;2.55;;;19.80;99.90;;;;;;4955687;29;20633;-67
2023/09/25 11:30:51;;;;;;;9.40;2.70;;;19.90;99.90;;;;;;4956286;29;20178;-66
2023/09/25 11:33:18;;;;;;;4.95;2.63;;;20.00;99.90;;;;;;4954612;29;20194;-67
2023/09/25 11:35:47;;;;;;;9.13;2.90;;;20.10;99.90;;;;;;4950150;29;20197;-68
2023/09/25 11:38:21;;;;;;;6.18;2.70;;;20.20;99.90;;;;;;4956266;29;20655;-66
2023/09/25 11:40:50;;;;;;;10.23;3.08;;;20.30;99.90;;;;;;4937253;29;20864;-66
2023/09/25 11:43:16;;;;;;;4.38;2.50;;;20.30;99.90;;;;;;4969538;28;20197;-66
2023/09/25 11:45:43;;;;;;;6.03;2.50;;;20.40;99.90;;;;;;4949707;29;20187;-66
2023/09/25 11:48:10;;;;;;;5.68;2.88;;;20.50;99.90;;;;;;4936393;29;20190;-67
2023/09/25 11:50:37;;;;;;;7.32;3.10;;;20.50;99.90;;;;;;4948442;28;20182;-65
2023/09/25 11:53:03;;;;;;;5.72;2.60;;;20.60;99.90;;;;;;4914124;29;20242;-66
2023/09/25 11:55:29;;;;;;;5.70;2.50;;;20.70;99.90;;;;;;4936832;29;20186;-65
2023/09/25 11:57:55;;;;;;;10.85;3.50;;;20.80;99.90;;;;;;4955457;29;20225;-67
2023/09/25 12:00:24;;;;;;;7.22;2.95;;;20.90;99.90;;;;;;4952393;28;20337;-66
2023/09/25 12:02:50;;;;;;;6.22;2.83;;;21.00;99.90;;;;;;4952519;29;20179;-67
2023/09/25 12:05:16;;;;;;;5.93;2.83;;;21.10;99.90;;;;;;4949605;29;20197;-66
2023/09/25 12:07:43;;;;;;;4.15;2.58;;;21.30;99.90;;;;;;4950103;29;20373;-66
2023/09/25 12:10:12;;;;;;;7.35;2.70;;;21.30;99.90;;;;;;4954637;29;20197;-67
2023/09/25 12:12:39;;;;;;;8.38;3.13;;;21.50;99.90;;;;;;4950253;29;20194;-67
2023/09/25 12:15:07;;;;;;;4.80;2.88;;;21.50;99.90;;;;;;4955215;29;20714;-68
2023/09/25 12:17:35;;;;;;;4.50;2.95;;;21.50;99.90;;;;;;4938294;29;20194;-66
2023/09/25 12:20:06;;;;;;;5.57;2.65;;;21.60;99.90;;;;;;4955720;29;20647;-67
2023/09/25 12:22:32;;;;;;;4.68;2.30;;;21.70;99.90;;;;;;4932457;29;20225;-69
2023/09/25 12:24:58;;;;;;;5.50;2.67;;;21.80;99.90;;;;;;4933446;29;20198;-66
2023/09/25 12:27:24;;;;;;;6.55;2.58;;;21.80;99.90;;;;;;4955231;29;20344;-66
2023/09/25 12:29:49;;;;;;;3.97;2.72;;;21.90;99.90;;;;;;4955592;29;20205;-67
2023/09/25 12:32:15;;;;;;;13.07;3.95;;;21.90;99.90;;;;;;4951044;29;20556;-67
2023/09/25 12:34:41;;;;;;;5.18;2.50;;;22.00;99.90;;;;;;4953166;28;20265;-68
2023/09/25 12:37:07;;;;;;;6.20;3.05;;;22.10;99.90;;;;;;4954729;28;20194;-67
2023/09/25 12:39:34;;;;;;;5.97;2.53;;;22.10;99.90;;;;;;4954839;29;20258;-68
2023/09/25 12:42:00;;;;;;;7.50;2.92;;;22.10;99.90;;;;;;4935318;29;20197;-67
2023/09/25 12:44:26;;;;;;;3.90;2.55;;;22.20;99.80;;;;;;4949035;29;20186;-67
2023/09/25 12:46:52;;;;;;;6.68;2.70;;;22.20;99.50;;;;;;4954605;29;20186;-67